sensor_id;sensor_type;location;lat;lon;timestamp;P1;durP1;ratioP1;P2;durP2;ratioP2
75645;SDS011;64237;52.438;13.240;2023-02-03T00:01:42;11.43;;;2.28;;
75645;SDS011;64237;52.438;13.240;2023-02-03T00:04:07;5.63;;;2.10;;
75645;SDS011;64237;52.438;13.240;2023-02-03T00:06:32;12.13;;;2.10;;
75645;SDS011;64237;52.438;13.240;2023-02-03T00:08:58;10.50;;;2.38;;
75645;SDS011;64237;52.438;13.240;2023-02-03T00:11:25;9.35;;;2.30;;
75645;SDS011;64237;52.438;13.240;2023-02-03T00:13:53;9.23;;;2.03;;
75645;SDS011;64237;52.438;13.240;2023-02-03T00:16:18;6.13;;;1.73;;
75645;SDS011;64237;52.438;13.240;2023-02-03T00:18:43;7.35;;;1.80;;
75645;SDS011;64237;52.438;13.240;2023-02-03T00:21:09;10.60;;;2.07;;
75645;SDS011;64237;52.438;13.240;2023-02-03T00:23:34;6.53;;;1.80;;
75645;SDS011;64237;52.438;13.240;2023-02-03T00:26:33;6.32;;;1.52;;
75645;SDS011;64237;52.438;13.240;2023-02-03T00:28:53;7.80;;;2.08;;
75645;SDS011;64237;52.438;13.240;2023-02-03T00:31:19;6.10;;;1.63;;
75645;SDS011;64237;52.438;13.240;2023-02-03T00:33:46;10.30;;;1.65;;
75645;SDS011;64237;52.438;13.240;2023-02-03T00:36:16;7.30;;;1.75;;
75645;SDS011;64237;52.438;13.240;2023-02-03T00:38:42;7.17;;;1.67;;
75645;SDS011;64237;52.438;13.240;2023-02-03T00:41:09;8.40;;;2.30;;
75645;SDS011;64237;52.438;13.240;2023-02-03T00:43:34;6.07;;;1.60;;
75645;SDS011;64237;52.438;13.240;2023-02-03T00:45:59;9.47;;;2.03;;
75645;SDS011;64237;52.438;13.240;2023-02-03T00:48:25;8.05;;;1.75;;
75645;SDS011;64237;52.438;13.240;2023-02-03T00:50:50;7.80;;;1.90;;
75645;SDS011;64237;52.438;13.240;2023-02-03T00:53:15;5.28;;;1.58;;
75645;SDS011;64237;52.438;13.240;2023-02-03T00:55:41;13.25;;;2.03;;
75645;SDS011;64237;52.438;13.240;2023-02-03T00:58:07;7.72;;;2.40;;
75645;SDS011;64237;52.438;13.240;2023-02-03T01:00:33;4.60;;;1.67;;
75645;SDS011;64237;52.438;13.240;2023-02-03T01:02:58;7.55;;;1.95;;
75645;SDS011;64237;52.438;13.240;2023-02-03T01:05:23;6.07;;;1.50;;
75645;SDS011;64237;52.438;13.240;2023-02-03T01:07:49;9.73;;;2.30;;
75645;SDS011;64237;52.438;13.240;2023-02-03T01:10:14;6.97;;;1.85;;
75645;SDS011;64237;52.438;13.240;2023-02-03T01:12:40;11.85;;;2.47;;
75645;SDS011;64237;52.438;13.240;2023-02-03T01:15:05;8.23;;;2.35;;
75645;SDS011;64237;52.438;13.240;2023-02-03T01:17:31;12.93;;;2.90;;
75645;SDS011;64237;52.438;13.240;2023-02-03T01:19:56;8.10;;;2.22;;
75645;SDS011;64237;52.438;13.240;2023-02-03T01:22:22;8.55;;;2.60;;
75645;SDS011;64237;52.438;13.240;2023-02-03T01:24:47;10.57;;;2.47;;
75645;SDS011;64237;52.438;13.240;2023-02-03T01:27:12;6.15;;;2.28;;
75645;SDS011;64237;52.438;13.240;2023-02-03T01:29:38;11.60;;;3.50;;
75645;SDS011;64237;52.438;13.240;2023-02-03T01:32:03;9.70;;;2.92;;
75645;SDS011;64237;52.438;13.240;2023-02-03T01:34:29;6.75;;;2.35;;
75645;SDS011;64237;52.438;13.240;2023-02-03T01:36:54;11.98;;;2.63;;
75645;SDS011;64237;52.438;13.240;2023-02-03T01:39:19;11.05;;;3.03;;
75645;SDS011;64237;52.438;13.240;2023-02-03T01:41:45;11.77;;;2.88;;
75645;SDS011;64237;52.438;13.240;2023-02-03T01:47:20;9.15;;;2.58;;
75645;SDS011;64237;52.438;13.240;2023-02-03T01:52:16;7.47;;;2.58;;
75645;SDS011;64237;52.438;13.240;2023-02-03T01:54:43;9.90;;;3.30;;
75645;SDS011;64237;52.438;13.240;2023-02-03T01:57:14;7.28;;;2.00;;
75645;SDS011;64237;52.438;13.240;2023-02-03T01:59:42;7.10;;;2.55;;
75645;SDS011;64237;52.438;13.240;2023-02-03T02:02:08;4.63;;;2.13;;
75645;SDS011;64237;52.438;13.240;2023-02-03T02:04:38;8.57;;;2.92;;
75645;SDS011;64237;52.438;13.240;2023-02-03T02:07:10;9.02;;;2.95;;
75645;SDS011;64237;52.438;13.240;2023-02-03T02:09:36;10.65;;;2.53;;
75645;SDS011;64237;52.438;13.240;2023-02-03T02:12:02;8.50;;;2.55;;
75645;SDS011;64237;52.438;13.240;2023-02-03T02:14:27;8.88;;;2.58;;
75645;SDS011;64237;52.438;13.240;2023-02-03T02:34:28;4.20;;;1.88;;
75645;SDS011;64237;52.438;13.240;2023-02-03T02:45:45;4.30;;;1.67;;
75645;SDS011;64237;52.438;13.240;2023-02-03T02:50:59;9.10;;;2.20;;
75645;SDS011;64237;52.438;13.240;2023-02-03T02:53:28;5.88;;;2.25;;
75645;SDS011;64237;52.438;13.240;2023-02-03T02:55:59;4.80;;;2.28;;
75645;SDS011;64237;52.438;13.240;2023-02-03T02:58:29;4.63;;;1.83;;
75645;SDS011;64237;52.438;13.240;2023-02-03T03:00:57;5.05;;;1.80;;
75645;SDS011;64237;52.438;13.240;2023-02-03T03:03:22;5.45;;;1.60;;
75645;SDS011;64237;52.438;13.240;2023-02-03T03:08:21;2.75;;;1.10;;
75645;SDS011;64237;52.438;13.240;2023-02-03T03:10:53;5.07;;;1.42;;
75645;SDS011;64237;52.438;13.240;2023-02-03T03:13:22;5.68;;;1.45;;
75645;SDS011;64237;52.438;13.240;2023-02-03T03:15:51;2.38;;;1.25;;
75645;SDS011;64237;52.438;13.240;2023-02-03T03:18:22;2.28;;;1.20;;
75645;SDS011;64237;52.438;13.240;2023-02-03T03:20:52;2.28;;;1.20;;
75645;SDS011;64237;52.438;13.240;2023-02-03T03:25:52;1.90;;;1.10;;
75645;SDS011;64237;52.438;13.240;2023-02-03T03:28:24;2.95;;;1.20;;
75645;SDS011;64237;52.438;13.240;2023-02-03T03:31:12;3.20;;;1.10;;
75645;SDS011;64237;52.438;13.240;2023-02-03T03:33:37;2.55;;;1.20;;
75645;SDS011;64237;52.438;13.240;2023-02-03T03:38:41;1.70;;;1.00;;
75645;SDS011;64237;52.438;13.240;2023-02-03T03:41:18;2.65;;;1.00;;
75645;SDS011;64237;52.438;13.240;2023-02-03T03:44:00;0.28;;;0.28;;
75645;SDS011;64237;52.438;13.240;2023-02-03T03:46:31;1.88;;;1.10;;
75645;SDS011;64237;52.438;13.240;2023-02-03T03:49:04;5.22;;;1.27;;
75645;SDS011;64237;52.438;13.240;2023-02-03T03:51:46;2.33;;;1.30;;
75645;SDS011;64237;52.438;13.240;2023-02-03T03:54:16;3.67;;;1.05;;
75645;SDS011;64237;52.438;13.240;2023-02-03T03:56:53;3.40;;;1.25;;
75645;SDS011;64237;52.438;13.240;2023-02-03T03:59:28;3.30;;;1.20;;
75645;SDS011;64237;52.438;13.240;2023-02-03T04:01:56;2.55;;;1.20;;
75645;SDS011;64237;52.438;13.240;2023-02-03T04:04:28;3.25;;;1.58;;
75645;SDS011;64237;52.438;13.240;2023-02-03T04:06:55;1.83;;;1.20;;
75645;SDS011;64237;52.438;13.240;2023-02-03T04:09:21;3.50;;;1.50;;
75645;SDS011;64237;52.438;13.240;2023-02-03T04:11:46;4.13;;;1.67;;
75645;SDS011;64237;52.438;13.240;2023-02-03T04:14:31;3.33;;;1.38;;
75645;SDS011;64237;52.438;13.240;2023-02-03T04:17:02;3.70;;;1.65;;
75645;SDS011;64237;52.438;13.240;2023-02-03T04:19:28;3.90;;;1.55;;
75645;SDS011;64237;52.438;13.240;2023-02-03T04:21:54;4.30;;;1.73;;
75645;SDS011;64237;52.438;13.240;2023-02-03T04:24:20;4.93;;;1.88;;
75645;SDS011;64237;52.438;13.240;2023-02-03T04:26:45;3.63;;;1.93;;
75645;SDS011;64237;52.438;13.240;2023-02-03T04:29:11;5.45;;;2.10;;
75645;SDS011;64237;52.438;13.240;2023-02-03T04:31:36;6.30;;;2.05;;
75645;SDS011;64237;52.438;13.240;2023-02-03T04:34:02;6.28;;;2.65;;
75645;SDS011;64237;52.438;13.240;2023-02-03T04:36:28;6.70;;;2.30;;
75645;SDS011;64237;52.438;13.240;2023-02-03T04:38:53;5.80;;;2.40;;
75645;SDS011;64237;52.438;13.240;2023-02-03T04:41:19;6.60;;;3.07;;
75645;SDS011;64237;52.438;13.240;2023-02-03T04:43:44;7.20;;;3.08;;
75645;SDS011;64237;52.438;13.240;2023-02-03T04:46:09;6.80;;;3.10;;
75645;SDS011;64237;52.438;13.240;2023-02-03T04:48:35;7.75;;;3.20;;
75645;SDS011;64237;52.438;13.240;2023-02-03T04:51:01;8.50;;;3.50;;
75645;SDS011;64237;52.438;13.240;2023-02-03T04:53:28;11.13;;;3.95;;
75645;SDS011;64237;52.438;13.240;2023-02-03T04:55:54;12.00;;;4.13;;
75645;SDS011;64237;52.438;13.240;2023-02-03T04:58:20;15.35;;;5.45;;
75645;SDS011;64237;52.438;13.240;2023-02-03T05:00:45;12.95;;;5.72;;
75645;SDS011;64237;52.438;13.240;2023-02-03T05:03:10;13.60;;;5.67;;
75645;SDS011;64237;52.438;13.240;2023-02-03T05:05:36;16.80;;;5.75;;
75645;SDS011;64237;52.438;13.240;2023-02-03T05:08:01;13.05;;;5.63;;
75645;SDS011;64237;52.438;13.240;2023-02-03T05:10:26;12.40;;;5.28;;
75645;SDS011;64237;52.438;13.240;2023-02-03T05:12:51;13.10;;;5.40;;
75645;SDS011;64237;52.438;13.240;2023-02-03T05:15:17;16.10;;;6.03;;
75645;SDS011;64237;52.438;13.240;2023-02-03T05:17:42;14.67;;;6.40;;
75645;SDS011;64237;52.438;13.240;2023-02-03T05:20:08;16.77;;;6.80;;
75645;SDS011;64237;52.438;13.240;2023-02-03T05:22:34;20.73;;;7.72;;
75645;SDS011;64237;52.438;13.240;2023-02-03T05:25:00;24.75;;;8.07;;
75645;SDS011;64237;52.438;13.240;2023-02-03T05:27:25;22.95;;;8.00;;
75645;SDS011;64237;52.438;13.240;2023-02-03T05:29:51;23.33;;;8.35;;
75645;SDS011;64237;52.438;13.240;2023-02-03T05:32:16;22.85;;;8.18;;
75645;SDS011;64237;52.438;13.240;2023-02-03T05:34:42;21.27;;;8.23;;
75645;SDS011;64237;52.438;13.240;2023-02-03T05:37:07;24.40;;;8.40;;
75645;SDS011;64237;52.438;13.240;2023-02-03T05:39:32;22.40;;;8.45;;
75645;SDS011;64237;52.438;13.240;2023-02-03T05:41:58;22.80;;;8.93;;
75645;SDS011;64237;52.438;13.240;2023-02-03T05:44:26;22.23;;;9.25;;
75645;SDS011;64237;52.438;13.240;2023-02-03T05:46:53;25.10;;;8.68;;
75645;SDS011;64237;52.438;13.240;2023-02-03T05:49:20;29.20;;;9.75;;
75645;SDS011;64237;52.438;13.240;2023-02-03T05:51:47;25.48;;;9.60;;
75645;SDS011;64237;52.438;13.240;2023-02-03T05:54:13;27.73;;;9.82;;
75645;SDS011;64237;52.438;13.240;2023-02-03T05:56:39;27.52;;;9.70;;
75645;SDS011;64237;52.438;13.240;2023-02-03T05:59:04;26.98;;;9.95;;
75645;SDS011;64237;52.438;13.240;2023-02-03T06:01:30;24.17;;;9.60;;
75645;SDS011;64237;52.438;13.240;2023-02-03T06:03:56;25.85;;;9.68;;
75645;SDS011;64237;52.438;13.240;2023-02-03T06:06:21;22.08;;;9.10;;
75645;SDS011;64237;52.438;13.240;2023-02-03T06:08:47;23.27;;;9.43;;
75645;SDS011;64237;52.438;13.240;2023-02-03T06:11:12;20.95;;;8.57;;
75645;SDS011;64237;52.438;13.240;2023-02-03T06:13:38;26.90;;;9.65;;
75645;SDS011;64237;52.438;13.240;2023-02-03T06:16:03;24.45;;;9.45;;
75645;SDS011;64237;52.438;13.240;2023-02-03T06:18:29;22.00;;;9.02;;
75645;SDS011;64237;52.438;13.240;2023-02-03T06:20:54;21.73;;;8.48;;
75645;SDS011;64237;52.438;13.240;2023-02-03T06:23:20;26.10;;;9.27;;
75645;SDS011;64237;52.438;13.240;2023-02-03T06:25:48;25.58;;;9.65;;
75645;SDS011;64237;52.438;13.240;2023-02-03T06:28:15;27.70;;;9.57;;
75645;SDS011;64237;52.438;13.240;2023-02-03T06:30:40;21.73;;;8.98;;
75645;SDS011;64237;52.438;13.240;2023-02-03T06:33:06;22.20;;;9.00;;
75645;SDS011;64237;52.438;13.240;2023-02-03T06:35:32;22.88;;;10.10;;
75645;SDS011;64237;52.438;13.240;2023-02-03T06:37:58;23.60;;;9.82;;
75645;SDS011;64237;52.438;13.240;2023-02-03T06:40:23;21.90;;;9.00;;
75645;SDS011;64237;52.438;13.240;2023-02-03T06:42:49;24.02;;;9.02;;
75645;SDS011;64237;52.438;13.240;2023-02-03T06:45:15;21.38;;;8.85;;
75645;SDS011;64237;52.438;13.240;2023-02-03T06:47:42;21.63;;;8.60;;
75645;SDS011;64237;52.438;13.240;2023-02-03T06:50:09;20.08;;;8.70;;
75645;SDS011;64237;52.438;13.240;2023-02-03T06:52:36;23.27;;;9.13;;
75645;SDS011;64237;52.438;13.240;2023-02-03T06:55:02;17.85;;;8.43;;
75645;SDS011;64237;52.438;13.240;2023-02-03T06:57:28;24.70;;;9.07;;
75645;SDS011;64237;52.438;13.240;2023-02-03T06:59:54;25.23;;;9.48;;
75645;SDS011;64237;52.438;13.240;2023-02-03T07:02:19;21.47;;;9.67;;
75645;SDS011;64237;52.438;13.240;2023-02-03T07:04:44;25.83;;;9.55;;
75645;SDS011;64237;52.438;13.240;2023-02-03T07:07:10;22.75;;;8.70;;
75645;SDS011;64237;52.438;13.240;2023-02-03T07:09:37;22.73;;;9.40;;
75645;SDS011;64237;52.438;13.240;2023-02-03T07:12:03;21.60;;;8.77;;
75645;SDS011;64237;52.438;13.240;2023-02-03T07:14:28;25.15;;;8.55;;
75645;SDS011;64237;52.438;13.240;2023-02-03T07:16:55;20.08;;;9.18;;
75645;SDS011;64237;52.438;13.240;2023-02-03T07:19:20;18.98;;;8.88;;
75645;SDS011;64237;52.438;13.240;2023-02-03T07:21:46;19.33;;;7.63;;
75645;SDS011;64237;52.438;13.240;2023-02-03T07:24:11;20.05;;;8.52;;
75645;SDS011;64237;52.438;13.240;2023-02-03T07:26:37;23.00;;;9.18;;
75645;SDS011;64237;52.438;13.240;2023-02-03T07:29:03;17.67;;;7.85;;
75645;SDS011;64237;52.438;13.240;2023-02-03T07:31:28;19.20;;;8.57;;
75645;SDS011;64237;52.438;13.240;2023-02-03T07:33:54;18.45;;;7.75;;
75645;SDS011;64237;52.438;13.240;2023-02-03T07:36:20;22.38;;;8.57;;
75645;SDS011;64237;52.438;13.240;2023-02-03T07:38:45;15.38;;;7.57;;
75645;SDS011;64237;52.438;13.240;2023-02-03T07:41:11;19.02;;;8.38;;
75645;SDS011;64237;52.438;13.240;2023-02-03T07:43:36;18.58;;;8.00;;
75645;SDS011;64237;52.438;13.240;2023-02-03T07:46:02;14.93;;;7.43;;
75645;SDS011;64237;52.438;13.240;2023-02-03T07:48:27;18.00;;;6.95;;
75645;SDS011;64237;52.438;13.240;2023-02-03T07:50:53;16.27;;;7.50;;
75645;SDS011;64237;52.438;13.240;2023-02-03T07:53:18;21.00;;;8.02;;
75645;SDS011;64237;52.438;13.240;2023-02-03T07:55:44;15.40;;;7.47;;
75645;SDS011;64237;52.438;13.240;2023-02-03T07:58:09;17.10;;;6.97;;
75645;SDS011;64237;52.438;13.240;2023-02-03T08:00:35;19.90;;;7.45;;
75645;SDS011;64237;52.438;13.240;2023-02-03T08:03:00;20.33;;;7.78;;
75645;SDS011;64237;52.438;13.240;2023-02-03T08:05:25;15.40;;;6.55;;
75645;SDS011;64237;52.438;13.240;2023-02-03T08:07:51;15.32;;;6.20;;
75645;SDS011;64237;52.438;13.240;2023-02-03T08:10:16;12.25;;;6.18;;
75645;SDS011;64237;52.438;13.240;2023-02-03T08:12:42;13.82;;;6.32;;
75645;SDS011;64237;52.438;13.240;2023-02-03T08:15:22;15.40;;;6.10;;
75645;SDS011;64237;52.438;13.240;2023-02-03T08:17:48;15.50;;;5.75;;
75645;SDS011;64237;52.438;13.240;2023-02-03T08:20:17;14.63;;;5.85;;
75645;SDS011;64237;52.438;13.240;2023-02-03T08:22:48;13.40;;;5.82;;
75645;SDS011;64237;52.438;13.240;2023-02-03T08:25:13;12.38;;;6.03;;
75645;SDS011;64237;52.438;13.240;2023-02-03T08:27:39;13.50;;;5.97;;
75645;SDS011;64237;52.438;13.240;2023-02-03T08:30:14;14.27;;;6.00;;
75645;SDS011;64237;52.438;13.240;2023-02-03T08:32:52;10.88;;;5.45;;
75645;SDS011;64237;52.438;13.240;2023-02-03T08:35:17;11.25;;;5.22;;
75645;SDS011;64237;52.438;13.240;2023-02-03T08:37:43;12.98;;;5.68;;
75645;SDS011;64237;52.438;13.240;2023-02-03T08:40:11;12.57;;;5.18;;
75645;SDS011;64237;52.438;13.240;2023-02-03T08:42:43;13.18;;;5.10;;
75645;SDS011;64237;52.438;13.240;2023-02-03T08:45:14;12.15;;;5.50;;
75645;SDS011;64237;52.438;13.240;2023-02-03T08:47:42;11.82;;;4.97;;
75645;SDS011;64237;52.438;13.240;2023-02-03T08:50:08;12.02;;;4.95;;
75645;SDS011;64237;52.438;13.240;2023-02-03T08:52:40;12.10;;;5.53;;
75645;SDS011;64237;52.438;13.240;2023-02-03T08:55:12;11.15;;;4.97;;
75645;SDS011;64237;52.438;13.240;2023-02-03T08:57:37;12.80;;;5.65;;
75645;SDS011;64237;52.438;13.240;2023-02-03T09:02:55;10.32;;;4.70;;
75645;SDS011;64237;52.438;13.240;2023-02-03T09:05:21;10.35;;;4.93;;
75645;SDS011;64237;52.438;13.240;2023-02-03T09:07:46;8.80;;;4.63;;
75645;SDS011;64237;52.438;13.240;2023-02-03T09:10:15;14.23;;;4.53;;
75645;SDS011;64237;52.438;13.240;2023-02-03T09:12:40;9.52;;;4.30;;
75645;SDS011;64237;52.438;13.240;2023-02-03T09:15:05;10.82;;;4.72;;
75645;SDS011;64237;52.438;13.240;2023-02-03T09:17:31;10.18;;;4.93;;
75645;SDS011;64237;52.438;13.240;2023-02-03T09:19:56;10.40;;;4.57;;
75645;SDS011;64237;52.438;13.240;2023-02-03T09:22:25;9.63;;;4.60;;
75645;SDS011;64237;52.438;13.240;2023-02-03T09:24:50;9.82;;;4.18;;
75645;SDS011;64237;52.438;13.240;2023-02-03T09:27:31;11.02;;;4.18;;
75645;SDS011;64237;52.438;13.240;2023-02-03T09:29:56;11.95;;;4.03;;
75645;SDS011;64237;52.438;13.240;2023-02-03T09:32:25;11.23;;;4.13;;
75645;SDS011;64237;52.438;13.240;2023-02-03T09:34:56;11.68;;;3.88;;
75645;SDS011;64237;52.438;13.240;2023-02-03T09:37:22;8.27;;;3.60;;
75645;SDS011;64237;52.438;13.240;2023-02-03T09:39:47;9.37;;;3.67;;
75645;SDS011;64237;52.438;13.240;2023-02-03T09:42:16;7.82;;;3.47;;
75645;SDS011;64237;52.438;13.240;2023-02-03T09:47:51;8.10;;;3.85;;
75645;SDS011;64237;52.438;13.240;2023-02-03T09:50:27;6.20;;;2.88;;
75645;SDS011;64237;52.438;13.240;2023-02-03T09:52:56;9.05;;;3.75;;
75645;SDS011;64237;52.438;13.240;2023-02-03T09:58:10;8.00;;;3.00;;
75645;SDS011;64237;52.438;13.240;2023-02-03T10:01:07;9.18;;;3.50;;
75645;SDS011;64237;52.438;13.240;2023-02-03T10:03:39;8.00;;;3.30;;
75645;SDS011;64237;52.438;13.240;2023-02-03T10:06:48;8.88;;;3.30;;
75645;SDS011;64237;52.438;13.240;2023-02-03T10:21:16;7.18;;;2.50;;
75645;SDS011;64237;52.438;13.240;2023-02-03T10:23:52;4.47;;;2.30;;
75645;SDS011;64237;52.438;13.240;2023-02-03T10:26:21;7.13;;;2.47;;
75645;SDS011;64237;52.438;13.240;2023-02-03T10:28:52;7.15;;;2.22;;
75645;SDS011;64237;52.438;13.240;2023-02-03T10:31:26;9.40;;;2.40;;
75645;SDS011;64237;52.438;13.240;2023-02-03T10:34:11;5.90;;;2.20;;
75645;SDS011;64237;52.438;13.240;2023-02-03T10:36:57;5.78;;;2.20;;
75645;SDS011;64237;52.438;13.240;2023-02-03T10:39:46;5.65;;;1.95;;
75645;SDS011;64237;52.438;13.240;2023-02-03T10:42:13;5.22;;;1.80;;
75645;SDS011;64237;52.438;13.240;2023-02-03T10:44:41;5.47;;;2.22;;
75645;SDS011;64237;52.438;13.240;2023-02-03T10:47:30;4.68;;;1.90;;
75645;SDS011;64237;52.438;13.240;2023-02-03T10:50:03;4.07;;;1.50;;
75645;SDS011;64237;52.438;13.240;2023-02-03T10:52:32;5.32;;;1.65;;
75645;SDS011;64237;52.438;13.240;2023-02-03T10:55:05;4.03;;;1.33;;
75645;SDS011;64237;52.438;13.240;2023-02-03T10:57:36;6.55;;;1.20;;
75645;SDS011;64237;52.438;13.240;2023-02-03T11:03:05;2.88;;;1.00;;
75645;SDS011;64237;52.438;13.240;2023-02-03T11:05:35;3.08;;;0.88;;
75645;SDS011;64237;52.438;13.240;2023-02-03T11:08:16;3.22;;;0.68;;
75645;SDS011;64237;52.438;13.240;2023-02-03T11:10:41;4.03;;;0.85;;
75645;SDS011;64237;52.438;13.240;2023-02-03T11:21:21;8.70;;;1.10;;
75645;SDS011;64237;52.438;13.240;2023-02-03T11:30:06;9.32;;;1.20;;
75645;SDS011;64237;52.438;13.240;2023-02-03T11:32:54;5.82;;;1.05;;
75645;SDS011;64237;52.438;13.240;2023-02-03T11:35:22;6.07;;;1.20;;
75645;SDS011;64237;52.438;13.240;2023-02-03T11:37:56;11.05;;;1.27;;
75645;SDS011;64237;52.438;13.240;2023-02-03T11:40:57;7.65;;;1.70;;
75645;SDS011;64237;52.438;13.240;2023-02-03T11:43:28;5.28;;;0.98;;
75645;SDS011;64237;52.438;13.240;2023-02-03T11:46:00;8.65;;;1.38;;
75645;SDS011;64237;52.438;13.240;2023-02-03T12:06:20;14.65;;;1.95;;
75645;SDS011;64237;52.438;13.240;2023-02-03T12:15:11;12.55;;;2.40;;
75645;SDS011;64237;52.438;13.240;2023-02-03T12:26:20;14.80;;;1.83;;
75645;SDS011;64237;52.438;13.240;2023-02-03T12:31:48;13.80;;;2.20;;
75645;SDS011;64237;52.438;13.240;2023-02-03T12:34:32;14.88;;;1.60;;
75645;SDS011;64237;52.438;13.240;2023-02-03T12:37:04;13.95;;;2.22;;
75645;SDS011;64237;52.438;13.240;2023-02-03T12:42:17;15.18;;;1.90;;
75645;SDS011;64237;52.438;13.240;2023-02-03T12:47:48;15.65;;;1.92;;
75645;SDS011;64237;52.438;13.240;2023-02-03T12:50:20;14.00;;;2.05;;
75645;SDS011;64237;52.438;13.240;2023-02-03T12:55:50;9.38;;;1.58;;
75645;SDS011;64237;52.438;13.240;2023-02-03T12:58:22;13.95;;;2.00;;
75645;SDS011;64237;52.438;13.240;2023-02-03T13:00:57;21.25;;;2.90;;
75645;SDS011;64237;52.438;13.240;2023-02-03T13:14:52;11.43;;;1.65;;
75645;SDS011;64237;52.438;13.240;2023-02-03T13:20:53;5.50;;;1.35;;
75645;SDS011;64237;52.438;13.240;2023-02-03T13:23:24;4.45;;;0.80;;
75645;SDS011;64237;52.438;13.240;2023-02-03T13:41:01;8.18;;;1.77;;
75645;SDS011;64237;52.438;13.240;2023-02-03T13:43:33;10.68;;;1.50;;
75645;SDS011;64237;52.438;13.240;2023-02-03T13:46:05;11.75;;;2.95;;
75645;SDS011;64237;52.438;13.240;2023-02-03T13:48:48;14.32;;;3.70;;
75645;SDS011;64237;52.438;13.240;2023-02-03T13:51:21;25.65;;;5.07;;
75645;SDS011;64237;52.438;13.240;2023-02-03T13:56:26;14.20;;;1.52;;
75645;SDS011;64237;52.438;13.240;2023-02-03T14:01:33;7.22;;;1.70;;
75645;SDS011;64237;52.438;13.240;2023-02-03T14:25:37;15.38;;;1.92;;
75645;SDS011;64237;52.438;13.240;2023-02-03T14:28:13;16.77;;;2.20;;
75645;SDS011;64237;52.438;13.240;2023-02-03T14:36:55;21.40;;;2.92;;
75645;SDS011;64237;52.438;13.240;2023-02-03T14:44:40;18.98;;;3.20;;
75645;SDS011;64237;52.438;13.240;2023-02-03T14:52:35;14.70;;;2.15;;
75645;SDS011;64237;52.438;13.240;2023-02-03T14:58:43;16.45;;;2.80;;
75645;SDS011;64237;52.438;13.240;2023-02-03T15:01:23;20.83;;;2.90;;
75645;SDS011;64237;52.438;13.240;2023-02-03T15:06:37;10.40;;;2.47;;
75645;SDS011;64237;52.438;13.240;2023-02-03T15:11:56;9.75;;;2.10;;
75645;SDS011;64237;52.438;13.240;2023-02-03T15:14:26;16.55;;;2.38;;
75645;SDS011;64237;52.438;13.240;2023-02-03T15:19:39;14.27;;;2.45;;
75645;SDS011;64237;52.438;13.240;2023-02-03T15:24:48;13.98;;;2.42;;
75645;SDS011;64237;52.438;13.240;2023-02-03T15:27:24;14.48;;;2.38;;
75645;SDS011;64237;52.438;13.240;2023-02-03T15:29:54;12.35;;;1.80;;
75645;SDS011;64237;52.438;13.240;2023-02-03T15:32:31;13.38;;;2.28;;
75645;SDS011;64237;52.438;13.240;2023-02-03T15:35:01;16.23;;;2.33;;
75645;SDS011;64237;52.438;13.240;2023-02-03T15:37:30;10.13;;;1.60;;
75645;SDS011;64237;52.438;13.240;2023-02-03T15:40:11;10.32;;;1.75;;
75645;SDS011;64237;52.438;13.240;2023-02-03T15:47:50;16.83;;;1.77;;
75645;SDS011;64237;52.438;13.240;2023-02-03T15:50:26;10.70;;;1.80;;
75645;SDS011;64237;52.438;13.240;2023-02-03T15:52:56;9.77;;;1.48;;
75645;SDS011;64237;52.438;13.240;2023-02-03T15:55:35;10.75;;;1.85;;
75645;SDS011;64237;52.438;13.240;2023-02-03T15:58:25;10.50;;;1.85;;
75645;SDS011;64237;52.438;13.240;2023-02-03T16:03:38;6.60;;;1.67;;
75645;SDS011;64237;52.438;13.240;2023-02-03T16:06:17;17.33;;;1.98;;
75645;SDS011;64237;52.438;13.240;2023-02-03T16:08:47;13.55;;;1.95;;
75645;SDS011;64237;52.438;13.240;2023-02-03T16:11:26;15.45;;;1.85;;
75645;SDS011;64237;52.438;13.240;2023-02-03T16:13:58;21.55;;;2.30;;
75645;SDS011;64237;52.438;13.240;2023-02-03T16:18:54;15.10;;;2.37;;
75645;SDS011;64237;52.438;13.240;2023-02-03T16:21:34;12.15;;;1.63;;
75645;SDS011;64237;52.438;13.240;2023-02-03T16:24:26;14.90;;;2.13;;
75645;SDS011;64237;52.438;13.240;2023-02-03T16:29:50;18.13;;;2.42;;
75645;SDS011;64237;52.438;13.240;2023-02-03T16:36:00;13.68;;;2.28;;
75645;SDS011;64237;52.438;13.240;2023-02-03T16:38:55;14.15;;;2.00;;
75645;SDS011;64237;52.438;13.240;2023-02-03T16:41:40;15.23;;;2.45;;
75645;SDS011;64237;52.438;13.240;2023-02-03T16:44:24;16.33;;;2.22;;
75645;SDS011;64237;52.438;13.240;2023-02-03T16:47:41;18.58;;;2.72;;
75645;SDS011;64237;52.438;13.240;2023-02-03T16:50:22;19.25;;;2.35;;
75645;SDS011;64237;52.438;13.240;2023-02-03T16:53:11;11.45;;;1.85;;
75645;SDS011;64237;52.438;13.240;2023-02-03T16:55:38;14.95;;;2.03;;
75645;SDS011;64237;52.438;13.240;2023-02-03T16:58:05;18.15;;;2.63;;
75645;SDS011;64237;52.438;13.240;2023-02-03T17:00:30;15.43;;;1.90;;
75645;SDS011;64237;52.438;13.240;2023-02-03T17:02:55;18.85;;;2.60;;
75645;SDS011;64237;52.438;13.240;2023-02-03T17:05:21;12.87;;;3.67;;
75645;SDS011;64237;52.438;13.240;2023-02-03T17:07:46;23.27;;;2.55;;
75645;SDS011;64237;52.438;13.240;2023-02-03T17:10:12;13.68;;;2.70;;
75645;SDS011;64237;52.438;13.240;2023-02-03T17:12:37;13.45;;;2.50;;
75645;SDS011;64237;52.438;13.240;2023-02-03T17:15:03;18.67;;;2.10;;
75645;SDS011;64237;52.438;13.240;2023-02-03T17:17:29;14.82;;;2.35;;
75645;SDS011;64237;52.438;13.240;2023-02-03T17:19:55;10.27;;;2.28;;
75645;SDS011;64237;52.438;13.240;2023-02-03T17:22:21;10.02;;;2.22;;
75645;SDS011;64237;52.438;13.240;2023-02-03T17:24:46;17.95;;;2.45;;
75645;SDS011;64237;52.438;13.240;2023-02-03T17:27:12;13.10;;;2.65;;
75645;SDS011;64237;52.438;13.240;2023-02-03T17:29:37;17.70;;;2.72;;
75645;SDS011;64237;52.438;13.240;2023-02-03T17:32:03;14.38;;;2.83;;
75645;SDS011;64237;52.438;13.240;2023-02-03T17:34:28;16.65;;;2.22;;
75645;SDS011;64237;52.438;13.240;2023-02-03T17:36:54;12.13;;;2.42;;
75645;SDS011;64237;52.438;13.240;2023-02-03T17:39:19;9.88;;;1.58;;
75645;SDS011;64237;52.438;13.240;2023-02-03T17:41:45;11.50;;;1.95;;
75645;SDS011;64237;52.438;13.240;2023-02-03T17:44:10;14.70;;;2.28;;
75645;SDS011;64237;52.438;13.240;2023-02-03T17:46:36;17.05;;;2.53;;
75645;SDS011;64237;52.438;13.240;2023-02-03T17:49:01;12.73;;;1.50;;
75645;SDS011;64237;52.438;13.240;2023-02-03T17:51:27;12.13;;;2.25;;
75645;SDS011;64237;52.438;13.240;2023-02-03T17:53:55;16.35;;;2.33;;
75645;SDS011;64237;52.438;13.240;2023-02-03T17:56:22;15.45;;;2.20;;
75645;SDS011;64237;52.438;13.240;2023-02-03T17:58:55;16.42;;;2.10;;
75645;SDS011;64237;52.438;13.240;2023-02-03T18:01:22;15.68;;;2.58;;
75645;SDS011;64237;52.438;13.240;2023-02-03T18:03:53;12.73;;;2.60;;
75645;SDS011;64237;52.438;13.240;2023-02-03T18:06:21;11.88;;;1.63;;
75645;SDS011;64237;52.438;13.240;2023-02-03T18:08:48;16.77;;;2.58;;
75645;SDS011;64237;52.438;13.240;2023-02-03T18:11:14;14.80;;;2.17;;
75645;SDS011;64237;52.438;13.240;2023-02-03T18:13:42;14.05;;;2.58;;
75645;SDS011;64237;52.438;13.240;2023-02-03T18:16:09;11.77;;;2.30;;
75645;SDS011;64237;52.438;13.240;2023-02-03T18:18:41;16.30;;;2.40;;
75645;SDS011;64237;52.438;13.240;2023-02-03T18:21:09;10.50;;;1.80;;
75645;SDS011;64237;52.438;13.240;2023-02-03T18:23:36;17.25;;;2.10;;
75645;SDS011;64237;52.438;13.240;2023-02-03T18:26:03;13.23;;;2.28;;
75645;SDS011;64237;52.438;13.240;2023-02-03T18:28:29;14.07;;;1.70;;